Time;durP1;ratioP1;P1;durP2;ratioP2;P2;SDS_P1;SDS_P2;PMS_P1;PMS_P2;Temp;Humidity;BMP_temperature;BMP_pressure;BME280_temperature;BME280_humidity;BME280_pressure;Samples;Min_cycle;Max_cycle;Signal;HPM_P1;HPM_P2
2023/01/08 00:02:05;;;;;;;1564.43;241.30;;;8.40;99.90;;;;;;5052397;28;20781;-51
2023/01/08 00:04:34;;;;;;;980.73;178.93;;;8.50;99.90;;;;;;5052607;28;20256;-51
2023/01/08 00:07:02;;;;;;;944.50;150.80;;;8.50;99.90;;;;;;5037208;28;20668;-52
2023/01/08 00:09:30;;;;;;;1458.43;240.27;;;8.50;99.90;;;;;;5049513;28;20221;-52
2023/01/08 00:11:58;;;;;;;1981.33;353.77;;;8.50;99.90;;;;;;5052679;28;20244;-52
2023/01/08 00:14:26;;;;;;;1999.90;345.67;;;8.50;99.90;;;;;;5052740;28;20304;-52
2023/01/08 00:16:54;;;;;;;1048.93;188.87;;;8.40;99.90;;;;;;5052415;28;20263;-53
2023/01/08 00:19:23;;;;;;;1999.90;425.80;;;8.40;99.90;;;;;;5052589;28;20213;-51
2023/01/08 00:21:51;;;;;;;1350.50;244.63;;;8.40;99.90;;;;;;5052189;28;20230;-52
2023/01/08 00:24:19;;;;;;;1999.90;531.60;;;8.40;99.90;;;;;;5040758;28;20276;-51
2023/01/08 00:26:47;;;;;;;1342.87;204.70;;;8.40;99.90;;;;;;5047745;28;20271;-50
2023/01/08 00:29:15;;;;;;;1999.90;430.13;;;8.40;99.90;;;;;;5052411;28;20210;-50
2023/01/08 00:31:44;;;;;;;1999.90;430.27;;;8.40;99.90;;;;;;5051774;28;20288;-52
2023/01/08 00:34:12;;;;;;;1645.57;255.73;;;8.40;99.90;;;;;;5052469;28;20205;-51
2023/01/08 00:36:41;;;;;;;858.10;191.93;;;8.50;99.90;;;;;;5051492;28;20219;-51
2023/01/08 00:39:09;;;;;;;1114.50;235.57;;;8.50;99.90;;;;;;5034297;28;20211;-51
2023/01/08 00:41:37;;;;;;;1999.90;572.00;;;8.50;99.90;;;;;;5044930;28;20228;-51
2023/01/08 00:44:06;;;;;;;615.53;117.03;;;8.50;99.90;;;;;;5050565;28;20822;-52
2023/01/08 00:46:34;;;;;;;1710.83;312.03;;;8.50;99.90;;;;;;5049423;28;20257;-51
2023/01/08 00:49:02;;;;;;;1280.83;248.27;;;8.50;99.90;;;;;;5039471;28;20246;-51
2023/01/08 00:51:30;;;;;;;1999.90;361.90;;;8.50;99.90;;;;;;5051926;28;20285;-52
2023/01/08 00:54:00;;;;;;;1999.90;387.27;;;8.50;99.90;;;;;;5051305;28;20260;-51
2023/01/08 00:56:28;;;;;;;753.10;149.43;;;8.50;99.90;;;;;;5051631;28;20258;-51
2023/01/08 00:58:56;;;;;;;1327.60;222.37;;;8.50;99.90;;;;;;5051397;28;20261;-51
2023/01/08 01:01:24;;;;;;;592.20;108.13;;;8.50;99.90;;;;;;5050434;28;20663;-53
2023/01/08 01:03:52;;;;;;;1022.27;171.23;;;8.50;99.90;;;;;;5051462;28;20308;-50
2023/01/08 01:06:20;;;;;;;388.90;86.60;;;8.50;99.90;;;;;;5051213;28;20213;-51
2023/01/08 01:08:48;;;;;;;857.00;133.00;;;8.60;99.90;;;;;;5038419;28;20250;-51
2023/01/08 01:11:21;;;;;;;868.90;154.90;;;8.60;99.90;;;;;;5049062;28;20233;-51
2023/01/08 01:13:50;;;;;;;640.30;138.50;;;8.50;99.90;;;;;;5051003;28;20249;-51
2023/01/08 01:16:18;;;;;;;1354.07;230.00;;;8.50;99.90;;;;;;5050925;28;20666;-51
2023/01/08 01:18:46;;;;;;;1757.87;268.73;;;8.50;99.90;;;;;;5051156;28;20209;-52
2023/01/08 01:21:21;;;;;;;1110.00;234.27;;;8.50;99.90;;;;;;5051062;28;20603;-52
2023/01/08 01:23:49;;;;;;;1371.60;238.10;;;8.50;99.90;;;;;;5049812;28;20311;-51
2023/01/08 01:26:21;;;;;;;529.23;113.13;;;8.50;99.90;;;;;;5045265;28;20260;-51
2023/01/08 01:28:51;;;;;;;955.00;191.53;;;8.50;99.90;;;;;;5040493;28;20213;-52
2023/01/08 01:31:19;;;;;;;1179.63;244.40;;;8.50;99.90;;;;;;5042221;28;20237;-52
2023/01/08 01:33:48;;;;;;;1553.43;303.23;;;8.50;99.90;;;;;;5042812;28;20259;-51
2023/01/08 01:36:17;;;;;;;573.07;106.20;;;8.40;99.90;;;;;;5050177;28;20672;-51
2023/01/08 01:38:47;;;;;;;1999.90;520.33;;;8.50;99.90;;;;;;5027500;28;20210;-52
2023/01/08 01:41:23;;;;;;;1999.90;378.63;;;8.40;99.90;;;;;;5045108;28;20293;-52
2023/01/08 01:43:52;;;;;;;1999.90;484.60;;;8.40;99.90;;;;;;5037596;28;20256;-52
2023/01/08 01:46:35;;;;;;;1402.03;243.73;;;8.40;99.90;;;;;;5026034;28;20560;-52
2023/01/08 01:49:08;;;;;;;1999.90;424.93;;;8.40;99.90;;;;;;5025708;28;20256;-51
2023/01/08 01:51:38;;;;;;;1999.90;376.03;;;8.40;99.90;;;;;;5031951;28;20229;-52
2023/01/08 01:54:09;;;;;;;1999.90;408.87;;;8.40;99.90;;;;;;5049624;28;20234;-51
2023/01/08 01:56:39;;;;;;;1196.97;236.80;;;8.40;99.90;;;;;;5049920;28;20268;-52
2023/01/08 01:59:07;;;;;;;1999.90;440.70;;;8.40;99.90;;;;;;5038453;28;20847;-51
2023/01/08 02:01:35;;;;;;;1656.53;278.87;;;8.30;99.90;;;;;;5050120;28;20303;-51
2023/01/08 02:04:03;;;;;;;1999.90;716.90;;;8.40;99.90;;;;;;5044908;28;20266;-52
2023/01/08 02:06:37;;;;;;;1943.43;267.73;;;8.40;99.90;;;;;;5040833;28;20236;-52
2023/01/08 02:09:11;;;;;;;1395.77;236.43;;;8.40;99.90;;;;;;5050146;28;20276;-51
2023/01/08 02:12:15;;;;;;;1999.90;619.83;;;8.40;99.90;;;;;;5050165;28;20235;-51
2023/01/08 02:14:43;;;;;;;1135.33;178.40;;;8.40;99.90;;;;;;5037995;28;20283;-51
2023/01/08 02:17:19;;;;;;;1779.40;290.67;;;8.40;99.90;;;;;;5050329;28;20312;-51
2023/01/08 02:19:51;;;;;;;1573.60;221.93;;;8.40;99.90;;;;;;5044068;28;20240;-51
2023/01/08 02:22:30;;;;;;;604.03;115.37;;;8.40;99.90;;;;;;5049714;28;20229;-50
2023/01/08 02:25:06;;;;;;;1999.90;356.30;;;8.40;99.90;;;;;;5025208;28;20725;-52
2023/01/08 02:27:37;;;;;;;648.13;120.23;;;8.40;99.90;;;;;;5048929;28;20815;-51
2023/01/08 02:30:07;;;;;;;1999.90;395.00;;;8.30;99.90;;;;;;5049760;28;20244;-51
2023/01/08 02:32:38;;;;;;;1999.90;528.30;;;8.40;99.90;;;;;;5048487;28;20642;-52
2023/01/08 02:35:07;;;;;;;755.90;147.73;;;8.40;99.90;;;;;;5049956;28;20212;-52
2023/01/08 02:37:36;;;;;;;1007.33;175.80;;;8.40;99.90;;;;;;5049455;28;20261;-51
2023/01/08 02:40:11;;;;;;;1010.83;184.53;;;8.40;99.90;;;;;;5044086;28;20237;-51
2023/01/08 02:42:47;;;;;;;1012.17;165.63;;;8.40;99.90;;;;;;5042157;28;20631;-52
2023/01/08 02:45:28;;;;;;;995.50;187.33;;;8.40;99.90;;;;;;5035515;28;20209;-52
2023/01/08 02:48:02;;;;;;;468.80;69.37;;;8.40;99.90;;;;;;5043817;28;20309;-51
2023/01/08 02:50:35;;;;;;;1662.67;204.57;;;8.40;99.90;;;;;;5048603;28;20309;-51
2023/01/08 02:53:08;;;;;;;709.87;147.87;;;8.40;99.90;;;;;;5048806;28;20225;-51
2023/01/08 02:55:38;;;;;;;1999.90;470.93;;;8.40;99.90;;;;;;5049775;28;20246;-51
2023/01/08 02:58:08;;;;;;;1893.77;334.73;;;8.30;99.90;;;;;;5049404;28;20261;-51
2023/01/08 03:00:39;;;;;;;422.23;95.07;;;8.40;99.90;;;;;;5049531;28;20300;-51
2023/01/08 03:03:10;;;;;;;145.00;41.37;;;8.40;99.90;;;;;;5048890;28;20301;-53
2023/01/08 03:05:42;;;;;;;484.37;67.07;;;8.40;99.90;;;;;;5037490;28;20241;-52
2023/01/08 03:08:11;;;;;;;442.80;79.67;;;8.40;99.90;;;;;;5049034;28;20316;-51
2023/01/08 03:10:44;;;;;;;308.90;99.10;;;8.40;99.90;;;;;;5021505;28;20236;-52
2023/01/08 03:13:18;;;;;;;914.33;128.83;;;8.40;99.90;;;;;;5037915;28;20289;-50
2023/01/08 03:15:49;;;;;;;501.27;88.97;;;8.40;99.90;;;;;;5047537;28;20243;-51
2023/01/08 03:18:23;;;;;;;1070.97;167.13;;;8.40;99.90;;;;;;5048886;28;20294;-52
2023/01/08 03:20:52;;;;;;;621.83;128.77;;;8.40;99.90;;;;;;5048971;28;20619;-52
2023/01/08 03:23:23;;;;;;;510.53;103.97;;;8.40;99.90;;;;;;5038649;28;20656;-52
2023/01/08 03:25:51;;;;;;;544.03;108.73;;;8.50;99.90;;;;;;5045032;28;20202;-51
2023/01/08 03:28:28;;;;;;;298.30;65.67;;;8.50;99.90;;;;;;5048990;28;20230;-51
2023/01/08 03:30:59;;;;;;;586.47;118.27;;;8.50;99.90;;;;;;5047920;28;20202;-51
2023/01/08 03:33:29;;;;;;;119.83;48.33;;;8.50;99.90;;;;;;5048136;28;20235;-51
2023/01/08 03:36:01;;;;;;;383.90;101.03;;;8.50;99.90;;;;;;5041337;28;20214;-51
2023/01/08 03:38:33;;;;;;;327.67;75.90;;;8.50;99.90;;;;;;5048252;28;20208;-52
2023/01/08 03:41:08;;;;;;;636.23;133.33;;;8.50;99.90;;;;;;5048653;28;20244;-51
2023/01/08 03:43:37;;;;;;;868.03;186.47;;;8.50;99.90;;;;;;5037283;28;20719;-50
2023/01/08 03:46:13;;;;;;;320.17;69.70;;;8.50;99.90;;;;;;5048152;28;20638;-51
2023/01/08 03:48:42;;;;;;;368.40;88.00;;;8.50;99.90;;;;;;5048449;28;20288;-51
2023/01/08 03:51:10;;;;;;;263.30;68.10;;;8.50;99.90;;;;;;5041390;28;20237;-51
2023/01/08 03:53:38;;;;;;;642.50;170.27;;;8.50;99.90;;;;;;5048482;28;20885;-52
2023/01/08 03:56:07;;;;;;;285.10;64.53;;;8.50;99.90;;;;;;5048471;28;20240;-52
2023/01/08 03:58:36;;;;;;;398.80;91.20;;;8.50;99.90;;;;;;5047228;28;20295;-52
2023/01/08 04:01:04;;;;;;;470.37;116.87;;;8.60;99.90;;;;;;5041553;28;20301;-50
2023/01/08 04:03:32;;;;;;;370.93;91.10;;;8.60;99.90;;;;;;5048145;28;20264;-51
2023/01/08 04:06:01;;;;;;;529.63;96.23;;;8.60;99.90;;;;;;5048751;28;20271;-51
2023/01/08 04:08:29;;;;;;;1186.93;202.97;;;8.60;99.90;;;;;;5048308;28;20286;-51
2023/01/08 04:10:57;;;;;;;532.40;116.03;;;8.60;99.90;;;;;;5048664;28;20212;-52
2023/01/08 04:13:25;;;;;;;296.93;88.53;;;8.60;99.90;;;;;;5044685;28;20336;-51
2023/01/08 04:15:54;;;;;;;670.83;149.60;;;8.60;99.90;;;;;;5040880;28;20368;-51
2023/01/08 04:18:22;;;;;;;1067.03;233.10;;;8.60;99.90;;;;;;5039249;28;20229;-50
2023/01/08 04:20:50;;;;;;;651.40;144.30;;;8.60;99.90;;;;;;5039543;28;20316;-52
2023/01/08 04:23:18;;;;;;;742.63;123.53;;;8.60;99.90;;;;;;5048012;28;20269;-51
2023/01/08 04:25:46;;;;;;;1219.70;240.60;;;8.60;99.90;;;;;;5044305;28;20249;-51
2023/01/08 04:28:14;;;;;;;1484.37;302.47;;;8.50;99.90;;;;;;5039397;28;20584;-51
2023/01/08 04:30:42;;;;;;;419.87;77.73;;;8.50;99.90;;;;;;5039084;28;20626;-51
2023/01/08 04:33:11;;;;;;;762.97;144.00;;;8.60;99.90;;;;;;5048349;28;20271;-52
2023/01/08 04:35:39;;;;;;;1999.90;410.70;;;8.60;99.90;;;;;;5048246;28;20215;-50
2023/01/08 04:38:08;;;;;;;1213.73;197.40;;;8.50;99.90;;;;;;5030357;28;20305;-52
2023/01/08 04:40:38;;;;;;;1494.37;259.10;;;8.50;99.90;;;;;;5041916;28;20203;-52
2023/01/08 04:43:06;;;;;;;1999.90;515.67;;;8.50;99.90;;;;;;5047048;28;20239;-52
2023/01/08 04:45:34;;;;;;;1034.47;216.73;;;8.50;99.90;;;;;;5048017;28;20672;-52
2023/01/08 04:48:02;;;;;;;1180.33;204.33;;;8.50;99.90;;;;;;5050555;28;20266;-52
2023/01/08 04:50:31;;;;;;;738.07;147.30;;;8.50;99.90;;;;;;5051873;28;20250;-52
2023/01/08 04:53:00;;;;;;;352.50;76.70;;;8.50;99.90;;;;;;5048620;28;20288;-52
2023/01/08 04:55:28;;;;;;;1193.57;217.83;;;8.40;99.90;;;;;;5040964;28;20202;-51
2023/01/08 04:57:56;;;;;;;1999.90;352.20;;;8.50;99.90;;;;;;5051723;28;20309;-51
2023/01/08 05:00:24;;;;;;;1417.50;276.17;;;8.40;99.90;;;;;;5051841;28;20294;-51
2023/01/08 05:02:52;;;;;;;1999.90;384.13;;;8.40;99.90;;;;;;5023406;28;20207;-51
2023/01/08 05:05:20;;;;;;;836.03;165.50;;;8.40;99.90;;;;;;5023973;28;20222;-51
2023/01/08 05:07:49;;;;;;;1998.13;265.37;;;8.40;99.90;;;;;;5051044;28;20655;-50
2023/01/08 05:10:17;;;;;;;1082.20;156.63;;;8.40;99.90;;;;;;5048529;28;20249;-51
2023/01/08 05:12:45;;;;;;;1578.30;209.73;;;8.40;99.90;;;;;;5051028;28;20715;-51
2023/01/08 05:15:13;;;;;;;1999.90;443.70;;;8.40;99.90;;;;;;5051230;28;20294;-52
2023/01/08 05:17:41;;;;;;;297.80;79.73;;;8.30;99.90;;;;;;5037021;28;20340;-51
2023/01/08 05:20:10;;;;;;;1999.90;417.20;;;8.30;99.90;;;;;;5036409;28;20245;-52
2023/01/08 05:22:38;;;;;;;1494.33;233.97;;;8.40;99.90;;;;;;5050630;28;20638;-49
2023/01/08 05:25:08;;;;;;;763.53;110.03;;;8.30;99.90;;;;;;5051090;28;20257;-51
2023/01/08 05:27:36;;;;;;;1692.33;252.23;;;8.30;99.90;;;;;;5041739;28;20256;-50
2023/01/08 05:30:05;;;;;;;1999.90;349.87;;;8.30;99.90;;;;;;5050792;28;20255;-51
2023/01/08 05:32:33;;;;;;;1999.90;318.80;;;8.30;99.90;;;;;;5046379;28;20930;-51
2023/01/08 05:35:01;;;;;;;490.40;78.37;;;8.30;99.90;;;;;;5050865;28;20229;-52
2023/01/08 05:37:29;;;;;;;1296.80;226.83;;;8.40;99.90;;;;;;5050394;28;20250;-51
2023/01/08 05:39:57;;;;;;;1999.90;340.60;;;8.40;99.90;;;;;;5050578;28;20213;-50
2023/01/08 05:42:26;;;;;;;1798.47;299.67;;;8.30;99.90;;;;;;5050147;28;20242;-51
2023/01/08 05:44:54;;;;;;;771.90;118.27;;;8.30;99.90;;;;;;5050685;28;20761;-51
2023/01/08 05:47:22;;;;;;;793.27;126.10;;;8.40;99.90;;;;;;5043531;28;20309;-51
2023/01/08 05:49:50;;;;;;;590.20;93.47;;;8.40;99.90;;;;;;5048571;28;20209;-50
2023/01/08 05:52:18;;;;;;;1999.90;408.30;;;8.40;99.90;;;;;;5040409;28;20686;-52
2023/01/08 05:54:46;;;;;;;1076.50;186.00;;;8.40;99.90;;;;;;5047791;28;20739;-51
2023/01/08 05:57:14;;;;;;;1787.53;230.13;;;8.40;99.90;;;;;;5049582;28;20230;-52
2023/01/08 05:59:44;;;;;;;1433.60;154.20;;;8.40;99.90;;;;;;5050293;28;20237;-52
2023/01/08 06:02:12;;;;;;;426.13;78.43;;;8.40;99.90;;;;;;5050451;28;20293;-51
2023/01/08 06:04:40;;;;;;;1966.90;229.83;;;8.40;99.90;;;;;;5042291;28;20329;-51
2023/01/08 06:07:08;;;;;;;1999.90;370.13;;;8.40;99.90;;;;;;5049809;28;20233;-52
2023/01/08 06:09:36;;;;;;;1671.33;192.50;;;8.40;99.90;;;;;;5049816;28;20214;-50
2023/01/08 06:12:04;;;;;;;1999.90;399.43;;;8.40;99.90;;;;;;5049535;28;20241;-52
2023/01/08 06:14:32;;;;;;;1999.90;372.90;;;8.40;99.90;;;;;;5034281;28;20331;-51
2023/01/08 06:17:02;;;;;;;1098.80;181.87;;;8.40;99.90;;;;;;5050052;28;20321;-51
2023/01/08 06:19:30;;;;;;;1999.90;460.53;;;8.40;99.90;;;;;;5048928;28;20358;-51
2023/01/08 06:21:58;;;;;;;1999.90;344.37;;;8.40;99.90;;;;;;5024368;28;20298;-51
2023/01/08 06:24:26;;;;;;;1999.90;887.77;;;8.30;99.90;;;;;;5048813;28;20650;-51
2023/01/08 06:26:54;;;;;;;1614.73;233.67;;;8.30;99.90;;;;;;5035737;28;20260;-52
2023/01/08 06:29:22;;;;;;;1480.47;203.53;;;8.30;99.90;;;;;;5049990;28;20233;-51
2023/01/08 06:31:49;;;;;;;1999.90;358.47;;;8.30;99.90;;;;;;5049872;28;20309;-52
2023/01/08 06:34:19;;;;;;;1522.97;248.17;;;8.30;99.90;;;;;;5040727;28;20230;-53
2023/01/08 06:36:47;;;;;;;1572.57;212.47;;;8.40;99.90;;;;;;5033683;28;20258;-51
2023/01/08 06:39:15;;;;;;;1999.90;383.70;;;8.40;99.90;;;;;;5031662;28;20218;-51
2023/01/08 06:41:43;;;;;;;1572.17;266.77;;;8.40;99.90;;;;;;5037138;28;20735;-52
2023/01/08 06:44:12;;;;;;;881.10;105.97;;;8.40;99.90;;;;;;5048797;28;20363;-51
2023/01/08 06:46:40;;;;;;;1971.90;275.03;;;8.40;99.90;;;;;;5041182;28;20692;-52
2023/01/08 06:49:08;;;;;;;1999.90;404.03;;;8.40;99.90;;;;;;5049520;28;20300;-51
2023/01/08 06:51:38;;;;;;;646.50;97.50;;;8.30;99.90;;;;;;5049221;28;20305;-51
2023/01/08 06:54:06;;;;;;;1999.90;343.90;;;8.40;99.90;;;;;;5043754;28;20306;-51
2023/01/08 06:56:34;;;;;;;1428.37;221.17;;;8.30;99.90;;;;;;5045574;28;20257;-51
2023/01/08 06:59:19;;;;;;;570.60;101.10;;;8.40;99.90;;;;;;5049271;28;20201;-51
2023/01/08 07:01:47;;;;;;;1992.97;344.53;;;8.30;99.90;;;;;;5048900;28;20300;-51
2023/01/08 07:04:16;;;;;;;1425.97;246.40;;;8.40;99.90;;;;;;5049162;28;20233;-51
2023/01/08 07:06:45;;;;;;;1012.77;210.10;;;8.40;99.90;;;;;;5033329;28;20312;-51
2023/01/08 07:09:14;;;;;;;1440.40;242.47;;;8.30;99.90;;;;;;5038447;28;20253;-52
2023/01/08 07:11:42;;;;;;;1999.90;337.20;;;8.40;99.90;;;;;;5041132;28;20299;-51
2023/01/08 07:14:11;;;;;;;869.73;104.47;;;8.40;99.90;;;;;;5049179;28;20231;-51
2023/01/08 07:16:39;;;;;;;341.60;82.73;;;8.40;99.90;;;;;;5049253;28;20221;-51
2023/01/08 07:19:07;;;;;;;1919.00;287.83;;;8.50;99.90;;;;;;5045014;28;20298;-51
2023/01/08 07:21:35;;;;;;;1999.90;323.50;;;8.50;99.90;;;;;;5029392;28;20243;-51
2023/01/08 07:24:06;;;;;;;1760.53;244.63;;;8.50;99.90;;;;;;5048976;28;20296;-52
2023/01/08 07:26:34;;;;;;;338.43;79.40;;;8.50;99.90;;;;;;5048692;28;20324;-51
2023/01/08 07:29:02;;;;;;;939.10;116.27;;;8.50;99.90;;;;;;5048919;28;20245;-51
2023/01/08 07:31:30;;;;;;;955.73;159.47;;;8.50;99.90;;;;;;5048978;28;20657;-52
2023/01/08 07:33:58;;;;;;;392.10;66.27;;;8.60;99.90;;;;;;5048837;28;20240;-51
2023/01/08 07:36:27;;;;;;;436.60;92.00;;;8.60;99.90;;;;;;5048204;28;20250;-50
2023/01/08 07:38:54;;;;;;;185.07;50.97;;;8.60;99.90;;;;;;5048950;28;20300;-51
2023/01/08 07:41:24;;;;;;;648.83;130.40;;;8.60;99.90;;;;;;5039594;28;20245;-51
2023/01/08 07:43:52;;;;;;;825.90;196.20;;;8.60;99.90;;;;;;5048405;28;20991;-51
2023/01/08 07:46:21;;;;;;;590.00;96.50;;;8.60;99.90;;;;;;5047900;28;20309;-51
2023/01/08 07:48:49;;;;;;;368.43;73.80;;;8.70;99.90;;;;;;5035919;28;20206;-51
2023/01/08 07:51:17;;;;;;;1217.53;285.67;;;8.70;99.90;;;;;;5042427;28;20281;-51
2023/01/08 07:53:45;;;;;;;720.60;101.43;;;8.70;99.90;;;;;;5041259;28;20237;-51
2023/01/08 07:56:13;;;;;;;109.37;45.17;;;8.70;99.90;;;;;;5048589;28;20293;-50
2023/01/08 07:58:43;;;;;;;1416.13;245.73;;;8.60;99.90;;;;;;5037059;28;20213;-51
2023/01/08 08:01:11;;;;;;;732.57;119.90;;;8.60;99.90;;;;;;5044729;28;20245;-52
2023/01/08 08:03:41;;;;;;;1841.03;227.97;;;8.60;99.90;;;;;;5016916;28;20244;-51
2023/01/08 08:06:09;;;;;;;660.83;105.47;;;8.60;99.90;;;;;;5028990;28;20230;-52
2023/01/08 08:08:37;;;;;;;1925.87;298.70;;;8.60;99.90;;;;;;5047695;28;20246;-51
2023/01/08 08:11:09;;;;;;;1999.90;539.03;;;8.60;99.90;;;;;;5048437;28;20252;-52
2023/01/08 08:13:41;;;;;;;1608.80;213.20;;;8.50;99.90;;;;;;5043915;28;20211;-52
2023/01/08 08:16:11;;;;;;;1999.90;360.90;;;8.60;99.90;;;;;;5040918;28;20233;-51
2023/01/08 08:18:39;;;;;;;1978.13;294.03;;;8.60;99.90;;;;;;5020158;28;20225;-52
2023/01/08 08:21:07;;;;;;;1033.30;166.57;;;8.60;99.90;;;;;;5022525;28;20206;-53
2023/01/08 08:23:35;;;;;;;1957.20;332.57;;;8.60;99.90;;;;;;5050763;28;20202;-52
2023/01/08 08:26:04;;;;;;;1999.90;369.23;;;8.50;99.90;;;;;;5051050;28;20257;-51
2023/01/08 08:28:33;;;;;;;1765.43;331.70;;;8.50;99.90;;;;;;5052369;28;20215;-51
2023/01/08 08:31:01;;;;;;;1999.90;402.13;;;8.50;99.90;;;;;;5052218;28;20198;-51
2023/01/08 08:33:30;;;;;;;1999.90;461.07;;;8.50;99.90;;;;;;5051386;28;20213;-51
2023/01/08 08:35:58;;;;;;;1999.90;429.13;;;8.60;99.90;;;;;;5051868;28;20678;-51
2023/01/08 08:38:27;;;;;;;1999.90;368.80;;;8.60;99.90;;;;;;5047040;28;20666;-51
2023/01/08 08:40:55;;;;;;;1999.90;378.40;;;8.60;99.90;;;;;;5051639;28;20230;-51
2023/01/08 08:43:23;;;;;;;986.13;191.47;;;8.60;99.90;;;;;;5051676;28;20242;-51
2023/01/08 08:45:51;;;;;;;1397.13;237.20;;;8.60;99.90;;;;;;5050624;28;20677;-52
2023/01/08 08:48:19;;;;;;;1999.90;332.20;;;8.60;99.90;;;;;;5050505;28;20275;-51
2023/01/08 08:50:48;;;;;;;1413.60;217.90;;;8.60;99.90;;;;;;5045628;28;20234;-52
2023/01/08 08:53:16;;;;;;;1828.93;304.57;;;8.60;99.90;;;;;;5027806;28;20621;-50
2023/01/08 08:55:44;;;;;;;1999.90;328.53;;;8.60;99.90;;;;;;5031229;28;20239;-52
2023/01/08 08:58:13;;;;;;;1694.67;201.30;;;8.50;99.90;;;;;;5048845;28;20226;-52
2023/01/08 09:00:43;;;;;;;939.67;166.03;;;8.60;99.90;;;;;;5050993;28;20273;-52
2023/01/08 09:03:13;;;;;;;1456.00;264.57;;;8.60;99.90;;;;;;5049637;28;20264;-52
2023/01/08 09:05:42;;;;;;;1999.90;266.20;;;8.60;99.90;;;;;;5045566;28;20213;-51
2023/01/08 09:08:12;;;;;;;1026.60;138.57;;;8.60;99.90;;;;;;5040841;28;20651;-51
2023/01/08 09:10:41;;;;;;;1999.90;497.30;;;8.60;99.90;;;;;;5051734;28;20207;-51
2023/01/08 09:13:09;;;;;;;716.00;110.40;;;8.60;99.90;;;;;;5037973;28;20246;-51
2023/01/08 09:15:38;;;;;;;1203.93;203.17;;;8.60;99.90;;;;;;5051416;28;20241;-51
2023/01/08 09:18:06;;;;;;;758.57;162.47;;;8.60;99.90;;;;;;5050656;28;20291;-51
2023/01/08 09:20:34;;;;;;;1261.47;235.80;;;8.60;99.90;;;;;;5050384;28;20248;-51
2023/01/08 09:23:02;;;;;;;559.80;102.43;;;8.60;99.90;;;;;;5051314;28;20237;-51
2023/01/08 09:25:32;;;;;;;654.07;138.57;;;8.60;99.90;;;;;;5029230;28;21084;-51
2023/01/08 09:28:00;;;;;;;1999.90;311.73;;;8.70;99.90;;;;;;5051128;28;20228;-51
2023/01/08 09:30:29;;;;;;;1999.90;405.13;;;8.70;99.90;;;;;;5045496;28;20202;-50
2023/01/08 09:32:57;;;;;;;1305.87;224.40;;;8.70;99.90;;;;;;5049859;28;20291;-51
2023/01/08 09:35:29;;;;;;;1252.47;186.07;;;8.60;99.90;;;;;;5051305;28;20229;-51
2023/01/08 09:37:58;;;;;;;417.57;93.07;;;8.60;99.90;;;;;;5050736;28;20228;-50
2023/01/08 09:40:31;;;;;;;1754.93;380.67;;;8.70;99.90;;;;;;5051480;28;20226;-52
2023/01/08 09:43:03;;;;;;;1999.90;513.80;;;8.60;99.90;;;;;;5050736;28;20256;-50
2023/01/08 09:45:32;;;;;;;1788.90;293.23;;;8.60;99.90;;;;;;5051108;28;20650;-52
2023/01/08 09:48:03;;;;;;;1999.90;339.80;;;8.60;99.90;;;;;;5050699;28;20226;-51
2023/01/08 09:50:31;;;;;;;1997.53;246.60;;;8.70;99.90;;;;;;5047932;28;20237;-52
2023/01/08 09:53:01;;;;;;;1999.90;440.40;;;8.70;99.90;;;;;;5047563;28;20610;-52
2023/01/08 09:55:32;;;;;;;1999.90;465.30;;;8.70;99.90;;;;;;5030685;28;20288;-51
2023/01/08 09:58:02;;;;;;;1999.90;547.43;;;8.70;99.90;;;;;;5030936;28;20288;-50
2023/01/08 10:00:33;;;;;;;1999.90;368.53;;;8.70;99.90;;;;;;5029591;28;20244;-52
2023/01/08 10:03:02;;;;;;;1392.73;174.80;;;8.60;99.90;;;;;;5030213;28;20210;-50
2023/01/08 10:05:30;;;;;;;1723.83;312.37;;;8.60;99.90;;;;;;5030163;28;20584;-51
2023/01/08 10:07:59;;;;;;;1691.10;277.50;;;8.70;99.90;;;;;;5025150;28;20238;-52
2023/01/08 10:10:30;;;;;;;1999.90;335.33;;;8.60;99.90;;;;;;5028647;28;20210;-52
2023/01/08 10:12:59;;;;;;;1999.90;568.37;;;8.60;99.90;;;;;;5030277;28;20289;-52
2023/01/08 10:15:28;;;;;;;1999.90;364.60;;;8.60;99.90;;;;;;5026751;28;20207;-50
2023/01/08 10:18:02;;;;;;;1999.90;522.33;;;8.70;99.90;;;;;;5049438;28;20267;-51
2023/01/08 10:20:30;;;;;;;1998.50;260.13;;;8.70;99.90;;;;;;5041295;28;20214;-51
2023/01/08 10:23:10;;;;;;;575.23;102.37;;;8.70;99.90;;;;;;5036370;28;20294;-51
2023/01/08 10:25:52;;;;;;;1999.90;368.07;;;8.70;99.90;;;;;;5049798;28;20237;-52
2023/01/08 10:28:23;;;;;;;1384.63;207.03;;;8.70;99.90;;;;;;5048891;28;20259;-51
2023/01/08 10:30:54;;;;;;;1724.80;204.53;;;8.70;99.90;;;;;;5044082;28;20298;-52
2023/01/08 10:33:28;;;;;;;1403.20;201.70;;;8.70;99.90;;;;;;5028833;28;20198;-52
2023/01/08 10:36:01;;;;;;;966.60;122.50;;;8.70;99.90;;;;;;5039416;28;20215;-52
2023/01/08 10:38:32;;;;;;;1493.53;194.77;;;8.80;99.90;;;;;;5048693;28;20222;-52
2023/01/08 10:41:03;;;;;;;1864.37;259.70;;;8.80;99.90;;;;;;5049339;28;20207;-52
2023/01/08 10:43:34;;;;;;;381.50;68.87;;;8.80;99.90;;;;;;5047109;28;20758;-51
2023/01/08 10:46:07;;;;;;;1999.90;579.37;;;8.90;99.90;;;;;;5044604;28;20260;-51
2023/01/08 10:48:39;;;;;;;1999.90;433.37;;;8.90;99.90;;;;;;5049012;28;20237;-50
2023/01/08 10:51:14;;;;;;;1999.90;312.63;;;8.90;99.90;;;;;;5049198;28;20822;-52
2023/01/08 10:53:42;;;;;;;1999.90;448.43;;;8.90;99.90;;;;;;5048808;28;20270;-52
2023/01/08 10:56:20;;;;;;;1471.33;179.00;;;8.90;99.90;;;;;;5049364;28;20713;-51
2023/01/08 10:58:49;;;;;;;1979.23;276.30;;;9.00;99.90;;;;;;5047339;28;20202;-51
2023/01/08 11:01:23;;;;;;;905.00;163.77;;;9.00;99.90;;;;;;5031279;28;20638;-52
2023/01/08 11:03:52;;;;;;;1491.37;180.67;;;9.00;99.90;;;;;;5048960;28;20227;-52
2023/01/08 11:06:23;;;;;;;1999.90;430.07;;;8.90;99.90;;;;;;5043935;28;20212;-52
2023/01/08 11:08:53;;;;;;;1415.30;266.47;;;8.90;99.90;;;;;;5041403;28;20234;-50
2023/01/08 11:11:22;;;;;;;1999.90;386.23;;;8.90;99.90;;;;;;5036864;28;20300;-52
2023/01/08 11:13:58;;;;;;;872.30;137.40;;;8.90;99.90;;;;;;5030714;28;20225;-51
2023/01/08 11:16:37;;;;;;;1999.90;462.20;;;8.80;99.90;;;;;;5047685;28;20296;-52
2023/01/08 11:19:14;;;;;;;1999.90;469.47;;;8.80;99.90;;;;;;5048989;28;20308;-51
2023/01/08 11:21:54;;;;;;;1945.77;275.87;;;8.80;99.90;;;;;;5048984;28;20209;-52
2023/01/08 11:24:26;;;;;;;1999.90;384.70;;;8.80;99.90;;;;;;5048855;28;20204;-51
2023/01/08 11:26:59;;;;;;;1999.90;568.90;;;8.80;99.90;;;;;;5043487;28;20272;-51
2023/01/08 11:29:37;;;;;;;1999.90;414.73;;;8.80;99.90;;;;;;5048808;28;20286;-51
2023/01/08 11:32:25;;;;;;;1999.90;379.80;;;8.80;99.90;;;;;;5048515;28;20564;-52
2023/01/08 11:34:59;;;;;;;1708.23;236.47;;;8.80;99.90;;;;;;5041239;28;20673;-52
2023/01/08 11:37:30;;;;;;;1999.90;321.07;;;8.90;99.90;;;;;;5048380;28;20229;-52
2023/01/08 11:39:58;;;;;;;1529.50;247.03;;;8.90;99.90;;;;;;5048975;28;20294;-51
2023/01/08 11:42:43;;;;;;;1999.90;300.17;;;8.80;99.90;;;;;;5045463;28;20255;-52
2023/01/08 11:45:19;;;;;;;1999.90;626.13;;;8.80;99.90;;;;;;5025851;28;20292;-52
2023/01/08 11:48:02;;;;;;;1999.90;358.33;;;8.80;99.90;;;;;;5047554;28;20601;-52
2023/01/08 11:50:34;;;;;;;1999.90;334.83;;;8.80;99.90;;;;;;5048581;28;20386;-52
2023/01/08 11:53:16;;;;;;;1999.90;583.03;;;8.90;99.90;;;;;;5048204;28;20348;-52
2023/01/08 11:55:54;;;;;;;1999.90;398.90;;;8.80;99.90;;;;;;5037958;28;20299;-50
2023/01/08 11:58:29;;;;;;;1999.90;541.57;;;8.80;99.90;;;;;;5051624;28;20217;-52
2023/01/08 12:01:10;;;;;;;1657.60;251.97;;;8.80;99.90;;;;;;5044167;28;20213;-51
2023/01/08 12:03:44;;;;;;;1999.90;366.80;;;8.80;99.90;;;;;;5050295;28;20212;-51
2023/01/08 12:06:27;;;;;;;1999.90;343.97;;;8.90;99.90;;;;;;5050833;28;20924;-52
2023/01/08 12:09:09;;;;;;;1999.90;334.50;;;8.90;99.90;;;;;;5033532;28;20237;-52
2023/01/08 12:11:42;;;;;;;1020.40;172.30;;;8.90;99.90;;;;;;5051920;28;20305;-52
2023/01/08 12:14:22;;;;;;;1999.90;501.27;;;8.90;99.90;;;;;;5051757;28;20231;-52
2023/01/08 12:17:12;;;;;;;1360.77;277.17;;;8.90;99.90;;;;;;5038730;28;20268;-52
2023/01/08 12:20:05;;;;;;;1999.90;366.03;;;8.90;99.90;;;;;;5026427;28;20640;-52
2023/01/08 12:22:42;;;;;;;1999.90;325.53;;;8.90;99.90;;;;;;5051969;28;20627;-52
2023/01/08 12:25:26;;;;;;;1288.27;206.47;;;9.00;99.90;;;;;;5049765;28;20702;-52
2023/01/08 12:28:07;;;;;;;957.77;129.83;;;8.90;99.90;;;;;;5024276;28;20279;-51
2023/01/08 12:30:50;;;;;;;1999.90;439.80;;;8.90;99.90;;;;;;5049022;28;20284;-52